sensor_id;sensor_type;location;lat;lon;timestamp;P1;durP1;ratioP1;P2;durP2;ratioP2
47367;SDS011;34646;47.964;7.982;2022-08-03T00:05:59;2.42;;;0.70;;
47367;SDS011;34646;47.964;7.982;2022-08-03T00:12:00;1.30;;;0.73;;
47367;SDS011;34646;47.964;7.982;2022-08-03T00:18:00;1.80;;;1.00;;
47367;SDS011;34646;47.964;7.982;2022-08-03T00:24:01;1.37;;;0.83;;
47367;SDS011;34646;47.964;7.982;2022-08-03T00:30:02;1.65;;;0.88;;
47367;SDS011;34646;47.964;7.982;2022-08-03T00:36:03;3.00;;;0.90;;
47367;SDS011;34646;47.964;7.982;2022-08-03T00:42:04;2.65;;;1.30;;
47367;SDS011;34646;47.964;7.982;2022-08-03T00:48:05;1.38;;;0.95;;
47367;SDS011;34646;47.964;7.982;2022-08-03T00:54:07;3.83;;;0.90;;
47367;SDS011;34646;47.964;7.982;2022-08-03T01:00:09;1.50;;;0.95;;
47367;SDS011;34646;47.964;7.982;2022-08-03T01:06:15;1.48;;;0.88;;
47367;SDS011;34646;47.964;7.982;2022-08-03T01:18:23;2.03;;;1.10;;
47367;SDS011;34646;47.964;7.982;2022-08-03T01:25:18;5.97;;;1.45;;
47367;SDS011;34646;47.964;7.982;2022-08-03T01:30:52;2.13;;;1.02;;
47367;SDS011;34646;47.964;7.982;2022-08-03T01:36:58;1.95;;;1.20;;
47367;SDS011;34646;47.964;7.982;2022-08-03T01:43:02;2.55;;;1.25;;
47367;SDS011;34646;47.964;7.982;2022-08-03T01:49:06;1.50;;;1.20;;
47367;SDS011;34646;47.964;7.982;2022-08-03T01:55:10;1.75;;;1.10;;
47367;SDS011;34646;47.964;7.982;2022-08-03T02:01:13;2.60;;;1.15;;
47367;SDS011;34646;47.964;7.982;2022-08-03T02:07:15;2.10;;;1.30;;
47367;SDS011;34646;47.964;7.982;2022-08-03T02:13:16;2.13;;;1.20;;
47367;SDS011;34646;47.964;7.982;2022-08-03T02:19:19;3.10;;;1.10;;
47367;SDS011;34646;47.964;7.982;2022-08-03T02:25:20;2.33;;;1.30;;
47367;SDS011;34646;47.964;7.982;2022-08-03T02:31:24;3.25;;;1.30;;
47367;SDS011;34646;47.964;7.982;2022-08-03T02:37:30;1.58;;;1.08;;
47367;SDS011;34646;47.964;7.982;2022-08-03T02:43:34;2.15;;;1.30;;
47367;SDS011;34646;47.964;7.982;2022-08-03T02:49:35;1.85;;;1.13;;
47367;SDS011;34646;47.964;7.982;2022-08-03T02:55:38;2.58;;;1.20;;
47367;SDS011;34646;47.964;7.982;2022-08-03T03:01:39;2.53;;;1.55;;
47367;SDS011;34646;47.964;7.982;2022-08-03T03:07:40;2.08;;;1.30;;
47367;SDS011;34646;47.964;7.982;2022-08-03T03:13:42;1.60;;;1.10;;
47367;SDS011;34646;47.964;7.982;2022-08-03T03:19:44;2.13;;;1.17;;
47367;SDS011;34646;47.964;7.982;2022-08-03T03:25:45;4.00;;;1.20;;
47367;SDS011;34646;47.964;7.982;2022-08-03T03:31:46;1.35;;;1.00;;
47367;SDS011;34646;47.964;7.982;2022-08-03T03:37:47;1.85;;;1.30;;
47367;SDS011;34646;47.964;7.982;2022-08-03T03:43:48;1.87;;;1.47;;
47367;SDS011;34646;47.964;7.982;2022-08-03T03:49:49;1.88;;;1.02;;
47367;SDS011;34646;47.964;7.982;2022-08-03T03:55:51;1.40;;;1.00;;
47367;SDS011;34646;47.964;7.982;2022-08-03T04:01:52;2.75;;;1.08;;
47367;SDS011;34646;47.964;7.982;2022-08-03T04:08:00;2.05;;;1.25;;
47367;SDS011;34646;47.964;7.982;2022-08-03T04:14:27;1.92;;;0.98;;
47367;SDS011;34646;47.964;7.982;2022-08-03T04:20:33;1.95;;;1.00;;
47367;SDS011;34646;47.964;7.982;2022-08-03T04:26:36;2.40;;;1.10;;
47367;SDS011;34646;47.964;7.982;2022-08-03T04:32:40;1.65;;;1.23;;
47367;SDS011;34646;47.964;7.982;2022-08-03T04:38:52;1.30;;;0.98;;
47367;SDS011;34646;47.964;7.982;2022-08-03T04:44:57;2.65;;;1.13;;
47367;SDS011;34646;47.964;7.982;2022-08-03T04:56:59;3.58;;;1.13;;
47367;SDS011;34646;47.964;7.982;2022-08-03T05:03:00;2.87;;;1.10;;
47367;SDS011;34646;47.964;7.982;2022-08-03T05:09:01;1.40;;;1.03;;
47367;SDS011;34646;47.964;7.982;2022-08-03T05:15:02;2.03;;;1.30;;
47367;SDS011;34646;47.964;7.982;2022-08-03T05:21:03;1.58;;;1.00;;
47367;SDS011;34646;47.964;7.982;2022-08-03T05:27:04;2.17;;;1.30;;
47367;SDS011;34646;47.964;7.982;2022-08-03T05:33:05;1.63;;;1.10;;
47367;SDS011;34646;47.964;7.982;2022-08-03T05:39:06;1.90;;;1.10;;
47367;SDS011;34646;47.964;7.982;2022-08-03T05:45:07;2.30;;;1.10;;
47367;SDS011;34646;47.964;7.982;2022-08-03T05:51:14;2.33;;;1.00;;
47367;SDS011;34646;47.964;7.982;2022-08-03T05:57:14;4.27;;;1.00;;
47367;SDS011;34646;47.964;7.982;2022-08-03T06:03:15;2.07;;;1.03;;
47367;SDS011;34646;47.964;7.982;2022-08-03T06:09:16;4.00;;;1.40;;
47367;SDS011;34646;47.964;7.982;2022-08-03T06:15:17;2.90;;;1.20;;
47367;SDS011;34646;47.964;7.982;2022-08-03T06:21:17;3.00;;;1.10;;
47367;SDS011;34646;47.964;7.982;2022-08-03T06:27:18;2.67;;;1.00;;
47367;SDS011;34646;47.964;7.982;2022-08-03T06:33:19;1.52;;;1.00;;
47367;SDS011;34646;47.964;7.982;2022-08-03T06:39:20;3.20;;;1.13;;
47367;SDS011;34646;47.964;7.982;2022-08-03T06:45:21;2.13;;;1.20;;
47367;SDS011;34646;47.964;7.982;2022-08-03T06:51:22;1.57;;;1.13;;
47367;SDS011;34646;47.964;7.982;2022-08-03T06:57:22;2.03;;;1.23;;
47367;SDS011;34646;47.964;7.982;2022-08-03T07:03:24;4.15;;;1.10;;
47367;SDS011;34646;47.964;7.982;2022-08-03T07:09:24;1.80;;;1.10;;
47367;SDS011;34646;47.964;7.982;2022-08-03T07:15:25;3.13;;;0.98;;
47367;SDS011;34646;47.964;7.982;2022-08-03T07:21:26;1.63;;;1.10;;
47367;SDS011;34646;47.964;7.982;2022-08-03T07:27:27;2.80;;;1.20;;
47367;SDS011;34646;47.964;7.982;2022-08-03T07:33:28;1.70;;;1.15;;
47367;SDS011;34646;47.964;7.982;2022-08-03T07:39:29;2.77;;;1.30;;
47367;SDS011;34646;47.964;7.982;2022-08-03T07:45:30;1.87;;;1.17;;
47367;SDS011;34646;47.964;7.982;2022-08-03T07:51:30;4.57;;;1.38;;
47367;SDS011;34646;47.964;7.982;2022-08-03T07:57:31;2.53;;;1.27;;
47367;SDS011;34646;47.964;7.982;2022-08-03T08:03:32;2.73;;;1.43;;
47367;SDS011;34646;47.964;7.982;2022-08-03T08:09:33;1.40;;;0.83;;
47367;SDS011;34646;47.964;7.982;2022-08-03T08:15:34;3.30;;;1.67;;
47367;SDS011;34646;47.964;7.982;2022-08-03T08:21:34;3.23;;;1.50;;
47367;SDS011;34646;47.964;7.982;2022-08-03T08:27:42;1.70;;;1.13;;
47367;SDS011;34646;47.964;7.982;2022-08-03T08:33:43;8.07;;;1.30;;
47367;SDS011;34646;47.964;7.982;2022-08-03T08:39:44;2.60;;;1.53;;
47367;SDS011;34646;47.964;7.982;2022-08-03T08:45:45;9.80;;;1.53;;
47367;SDS011;34646;47.964;7.982;2022-08-03T08:51:51;3.95;;;1.20;;
47367;SDS011;34646;47.964;7.982;2022-08-03T08:57:58;5.68;;;1.60;;
47367;SDS011;34646;47.964;7.982;2022-08-03T09:04:15;4.05;;;1.27;;
47367;SDS011;34646;47.964;7.982;2022-08-03T09:16:21;6.97;;;1.27;;
47367;SDS011;34646;47.964;7.982;2022-08-03T09:22:22;3.22;;;1.30;;
47367;SDS011;34646;47.964;7.982;2022-08-03T09:28:22;3.57;;;1.20;;
47367;SDS011;34646;47.964;7.982;2022-08-03T09:34:23;4.05;;;1.52;;
47367;SDS011;34646;47.964;7.982;2022-08-03T09:40:35;4.53;;;1.42;;
47367;SDS011;34646;47.964;7.982;2022-08-03T09:52:50;2.72;;;1.30;;
47367;SDS011;34646;47.964;7.982;2022-08-03T09:58:51;5.65;;;1.30;;
47367;SDS011;34646;47.964;7.982;2022-08-03T10:04:52;5.13;;;1.77;;
47367;SDS011;34646;47.964;7.982;2022-08-03T10:10:53;3.25;;;1.52;;
47367;SDS011;34646;47.964;7.982;2022-08-03T10:16:54;2.92;;;1.50;;
47367;SDS011;34646;47.964;7.982;2022-08-03T10:22:54;5.60;;;1.50;;
47367;SDS011;34646;47.964;7.982;2022-08-03T10:35:02;3.65;;;1.50;;
47367;SDS011;34646;47.964;7.982;2022-08-03T10:41:14;5.00;;;1.42;;
47367;SDS011;34646;47.964;7.982;2022-08-03T10:47:16;3.63;;;1.65;;
47367;SDS011;34646;47.964;7.982;2022-08-03T10:53:32;5.97;;;1.70;;
47367;SDS011;34646;47.964;7.982;2022-08-03T11:05:47;5.65;;;1.70;;
47367;SDS011;34646;47.964;7.982;2022-08-03T11:11:48;2.17;;;1.30;;
47367;SDS011;34646;47.964;7.982;2022-08-03T11:18:11;3.30;;;1.60;;
47367;SDS011;34646;47.964;7.982;2022-08-03T11:30:56;2.63;;;1.50;;
47367;SDS011;34646;47.964;7.982;2022-08-03T11:37:17;3.17;;;1.70;;
47367;SDS011;34646;47.964;7.982;2022-08-03T11:49:29;3.42;;;1.77;;
47367;SDS011;34646;47.964;7.982;2022-08-03T11:55:30;4.47;;;1.65;;
47367;SDS011;34646;47.964;7.982;2022-08-03T12:01:30;4.10;;;1.63;;
47367;SDS011;34646;47.964;7.982;2022-08-03T12:07:31;2.60;;;1.53;;
47367;SDS011;34646;47.964;7.982;2022-08-03T12:13:38;2.37;;;1.57;;
47367;SDS011;34646;47.964;7.982;2022-08-03T12:19:47;4.93;;;1.67;;
47367;SDS011;34646;47.964;7.982;2022-08-03T12:25:47;6.37;;;1.93;;
47367;SDS011;34646;47.964;7.982;2022-08-03T12:31:48;5.55;;;1.92;;
47367;SDS011;34646;47.964;7.982;2022-08-03T12:37:49;7.10;;;1.90;;
47367;SDS011;34646;47.964;7.982;2022-08-03T12:43:51;5.82;;;1.90;;
47367;SDS011;34646;47.964;7.982;2022-08-03T12:49:52;3.97;;;1.88;;
47367;SDS011;34646;47.964;7.982;2022-08-03T12:55:59;6.90;;;2.28;;
47367;SDS011;34646;47.964;7.982;2022-08-03T13:02:01;7.82;;;2.25;;
47367;SDS011;34646;47.964;7.982;2022-08-03T13:08:03;6.20;;;1.73;;
47367;SDS011;34646;47.964;7.982;2022-08-03T13:14:16;8.82;;;2.80;;
47367;SDS011;34646;47.964;7.982;2022-08-03T13:20:17;7.63;;;1.90;;
47367;SDS011;34646;47.964;7.982;2022-08-03T13:26:17;5.90;;;2.15;;
47367;SDS011;34646;47.964;7.982;2022-08-03T13:32:18;8.07;;;2.33;;
47367;SDS011;34646;47.964;7.982;2022-08-03T13:38:20;5.13;;;2.00;;
47367;SDS011;34646;47.964;7.982;2022-08-03T13:44:20;6.50;;;2.30;;
47367;SDS011;34646;47.964;7.982;2022-08-03T13:50:21;8.13;;;2.00;;
47367;SDS011;34646;47.964;7.982;2022-08-03T13:56:22;5.50;;;2.50;;
47367;SDS011;34646;47.964;7.982;2022-08-03T14:02:22;5.03;;;2.00;;
47367;SDS011;34646;47.964;7.982;2022-08-03T14:08:23;7.17;;;2.50;;
47367;SDS011;34646;47.964;7.982;2022-08-03T14:14:24;5.63;;;2.50;;
47367;SDS011;34646;47.964;7.982;2022-08-03T14:20:25;5.87;;;1.80;;
47367;SDS011;34646;47.964;7.982;2022-08-03T14:26:26;6.53;;;2.33;;
47367;SDS011;34646;47.964;7.982;2022-08-03T14:32:26;8.70;;;2.00;;
47367;SDS011;34646;47.964;7.982;2022-08-03T14:38:27;6.60;;;2.35;;
47367;SDS011;34646;47.964;7.982;2022-08-03T14:44:28;10.48;;;2.25;;
47367;SDS011;34646;47.964;7.982;2022-08-03T14:50:29;10.50;;;2.20;;
47367;SDS011;34646;47.964;7.982;2022-08-03T14:56:29;5.47;;;1.65;;
47367;SDS011;34646;47.964;7.982;2022-08-03T15:02:30;8.10;;;2.20;;
47367;SDS011;34646;47.964;7.982;2022-08-03T15:08:32;4.60;;;2.10;;
47367;SDS011;34646;47.964;7.982;2022-08-03T15:14:32;6.07;;;1.87;;
47367;SDS011;34646;47.964;7.982;2022-08-03T15:20:33;9.30;;;1.90;;
47367;SDS011;34646;47.964;7.982;2022-08-03T15:26:34;8.60;;;2.08;;
47367;SDS011;34646;47.964;7.982;2022-08-03T15:32:35;6.40;;;1.83;;
47367;SDS011;34646;47.964;7.982;2022-08-03T15:38:35;7.10;;;2.20;;
47367;SDS011;34646;47.964;7.982;2022-08-03T15:44:36;4.90;;;2.07;;
47367;SDS011;34646;47.964;7.982;2022-08-03T15:50:37;4.57;;;1.97;;
47367;SDS011;34646;47.964;7.982;2022-08-03T15:56:38;6.60;;;2.10;;
47367;SDS011;34646;47.964;7.982;2022-08-03T16:02:40;6.13;;;2.10;;
47367;SDS011;34646;47.964;7.982;2022-08-03T16:08:41;4.45;;;2.15;;
47367;SDS011;34646;47.964;7.982;2022-08-03T16:14:43;4.68;;;1.85;;
47367;SDS011;34646;47.964;7.982;2022-08-03T16:20:45;4.25;;;1.80;;
47367;SDS011;34646;47.964;7.982;2022-08-03T16:32:46;5.00;;;2.30;;
47367;SDS011;34646;47.964;7.982;2022-08-03T16:38:47;5.13;;;2.33;;
47367;SDS011;34646;47.964;7.982;2022-08-03T16:44:48;21.95;;;3.03;;
47367;SDS011;34646;47.964;7.982;2022-08-03T16:50:48;16.33;;;2.42;;
47367;SDS011;34646;47.964;7.982;2022-08-03T16:56:49;6.93;;;2.13;;
47367;SDS011;34646;47.964;7.982;2022-08-03T17:02:50;10.80;;;2.28;;
47367;SDS011;34646;47.964;7.982;2022-08-03T17:08:52;9.07;;;2.25;;
47367;SDS011;34646;47.964;7.982;2022-08-03T17:14:53;7.70;;;1.90;;
47367;SDS011;34646;47.964;7.982;2022-08-03T17:20:54;5.22;;;1.95;;
47367;SDS011;34646;47.964;7.982;2022-08-03T17:26:56;10.57;;;1.90;;
47367;SDS011;34646;47.964;7.982;2022-08-03T17:33:01;6.78;;;2.30;;
47367;SDS011;34646;47.964;7.982;2022-08-03T17:39:03;7.90;;;2.15;;
47367;SDS011;34646;47.964;7.982;2022-08-03T17:45:05;12.60;;;2.40;;
47367;SDS011;34646;47.964;7.982;2022-08-03T17:51:08;12.10;;;2.13;;
47367;SDS011;34646;47.964;7.982;2022-08-03T17:58:17;5.00;;;1.92;;
47367;SDS011;34646;47.964;7.982;2022-08-03T18:03:49;5.15;;;2.20;;
47367;SDS011;34646;47.964;7.982;2022-08-03T18:09:53;6.47;;;1.80;;
47367;SDS011;34646;47.964;7.982;2022-08-03T18:16:01;7.35;;;2.00;;
47367;SDS011;34646;47.964;7.982;2022-08-03T18:22:03;5.35;;;1.75;;
47367;SDS011;34646;47.964;7.982;2022-08-03T18:28:04;9.30;;;2.28;;
47367;SDS011;34646;47.964;7.982;2022-08-03T18:34:05;2.92;;;1.65;;
47367;SDS011;34646;47.964;7.982;2022-08-03T18:40:07;5.68;;;1.95;;
47367;SDS011;34646;47.964;7.982;2022-08-03T18:46:22;4.80;;;1.60;;
47367;SDS011;34646;47.964;7.982;2022-08-03T18:52:44;5.18;;;1.70;;
47367;SDS011;34646;47.964;7.982;2022-08-03T19:05:04;4.50;;;1.85;;
47367;SDS011;34646;47.964;7.982;2022-08-03T19:11:06;9.07;;;2.00;;
47367;SDS011;34646;47.964;7.982;2022-08-03T19:17:13;4.45;;;1.73;;
47367;SDS011;34646;47.964;7.982;2022-08-03T19:23:13;2.42;;;1.75;;
47367;SDS011;34646;47.964;7.982;2022-08-03T19:29:17;4.47;;;2.05;;
47367;SDS011;34646;47.964;7.982;2022-08-03T19:35:21;4.70;;;1.88;;
47367;SDS011;34646;47.964;7.982;2022-08-03T19:41:23;3.58;;;1.85;;
47367;SDS011;34646;47.964;7.982;2022-08-03T19:47:28;5.90;;;2.60;;
47367;SDS011;34646;47.964;7.982;2022-08-03T19:53:44;4.38;;;1.60;;
47367;SDS011;34646;47.964;7.982;2022-08-03T19:59:46;5.45;;;2.03;;
47367;SDS011;34646;47.964;7.982;2022-08-03T20:05:48;4.03;;;1.90;;
47367;SDS011;34646;47.964;7.982;2022-08-03T20:11:49;5.65;;;2.05;;
47367;SDS011;34646;47.964;7.982;2022-08-03T20:17:50;3.38;;;1.92;;
47367;SDS011;34646;47.964;7.982;2022-08-03T20:23:54;2.80;;;2.00;;
47367;SDS011;34646;47.964;7.982;2022-08-03T20:29:59;4.70;;;2.08;;
47367;SDS011;34646;47.964;7.982;2022-08-03T20:36:01;4.38;;;1.60;;
47367;SDS011;34646;47.964;7.982;2022-08-03T20:42:02;2.95;;;1.60;;
47367;SDS011;34646;47.964;7.982;2022-08-03T20:48:03;4.30;;;1.83;;
47367;SDS011;34646;47.964;7.982;2022-08-03T20:54:05;3.30;;;1.60;;
47367;SDS011;34646;47.964;7.982;2022-08-03T21:06:12;2.97;;;1.60;;
47367;SDS011;34646;47.964;7.982;2022-08-03T21:12:18;2.78;;;1.77;;
47367;SDS011;34646;47.964;7.982;2022-08-03T21:18:43;3.15;;;2.00;;
47367;SDS011;34646;47.964;7.982;2022-08-03T21:24:55;3.58;;;2.10;;
47367;SDS011;34646;47.964;7.982;2022-08-03T21:30:57;3.88;;;1.73;;
47367;SDS011;34646;47.964;7.982;2022-08-03T21:36:58;3.47;;;1.60;;
47367;SDS011;34646;47.964;7.982;2022-08-03T21:42:58;3.63;;;1.70;;
47367;SDS011;34646;47.964;7.982;2022-08-03T21:49:00;3.85;;;1.95;;
47367;SDS011;34646;47.964;7.982;2022-08-03T21:55:03;2.10;;;1.60;;
47367;SDS011;34646;47.964;7.982;2022-08-03T22:01:05;2.80;;;1.60;;
47367;SDS011;34646;47.964;7.982;2022-08-03T22:07:07;2.22;;;1.60;;
47367;SDS011;34646;47.964;7.982;2022-08-03T22:13:08;2.85;;;1.90;;
47367;SDS011;34646;47.964;7.982;2022-08-03T22:25:12;2.53;;;1.73;;
47367;SDS011;34646;47.964;7.982;2022-08-03T22:31:14;5.25;;;1.80;;
47367;SDS011;34646;47.964;7.982;2022-08-03T22:37:15;2.28;;;1.52;;
47367;SDS011;34646;47.964;7.982;2022-08-03T22:43:25;3.13;;;1.90;;
47367;SDS011;34646;47.964;7.982;2022-08-03T22:49:27;3.22;;;2.00;;
47367;SDS011;34646;47.964;7.982;2022-08-03T22:55:29;2.45;;;1.70;;
47367;SDS011;34646;47.964;7.982;2022-08-03T23:01:31;2.22;;;1.70;;
47367;SDS011;34646;47.964;7.982;2022-08-03T23:07:37;2.30;;;1.70;;
47367;SDS011;34646;47.964;7.982;2022-08-03T23:13:38;3.63;;;1.58;;
47367;SDS011;34646;47.964;7.982;2022-08-03T23:19:41;2.05;;;1.45;;
47367;SDS011;34646;47.964;7.982;2022-08-03T23:25:43;2.15;;;1.48;;
47367;SDS011;34646;47.964;7.982;2022-08-03T23:31:45;2.35;;;1.60;;
47367;SDS011;34646;47.964;7.982;2022-08-03T23:37:46;3.55;;;1.70;;
47367;SDS011;34646;47.964;7.982;2022-08-03T23:43:50;2.10;;;1.50;;
47367;SDS011;34646;47.964;7.982;2022-08-03T23:49:51;2.17;;;1.65;;
47367;SDS011;34646;47.964;7.982;2022-08-03T23:56:02;2.13;;;1.50;;
